Time;durP1;ratioP1;P1;durP2;ratioP2;P2;SDS_P1;SDS_P2;PMS_P1;PMS_P2;Temp;Humidity;BMP_temperature;BMP_pressure;BME280_temperature;BME280_humidity;BME280_pressure;Samples;Min_cycle;Max_cycle;Signal;HPM_P1;HPM_P2
2024/01/09 00:01:46;;;;;;;14.98;8.43;;;;;;;-3.04;57.96;97447.50;4919072;29;20131;-75
2024/01/09 00:04:14;;;;;;;14.43;8.18;;;;;;;-3.01;57.95;97449.06;4918344;29;20052;-77
2024/01/09 00:06:43;;;;;;;16.08;9.32;;;;;;;-3.01;57.33;97447.34;4918906;29;20139;-76
2024/01/09 00:09:10;;;;;;;16.75;9.05;;;;;;;-3.05;57.06;97440.72;4918610;29;20119;-76
2024/01/09 00:11:38;;;;;;;15.82;9.35;;;;;;;-3.06;57.57;97440.78;4918769;29;20056;-77
2024/01/09 00:14:06;;;;;;;14.95;9.82;;;;;;;-3.06;57.79;97446.75;4918830;29;20052;-76
2024/01/09 00:16:33;;;;;;;13.95;8.50;;;;;;;-3.03;57.83;97444.03;4918853;29;20056;-75
2024/01/09 00:19:01;;;;;;;16.58;9.70;;;;;;;-3.01;58.33;97446.50;4918408;29;20143;-77
2024/01/09 00:21:29;;;;;;;18.35;10.35;;;;;;;-2.97;60.28;97448.84;4918401;29;20058;-76
2024/01/09 00:23:57;;;;;;;16.08;9.20;;;;;;;-2.92;60.94;97441.75;4918363;29;20079;-77
2024/01/09 00:26:25;;;;;;;17.00;9.98;;;;;;;-2.94;60.07;97438.44;4918892;29;20080;-76
2024/01/09 00:28:53;;;;;;;14.40;8.77;;;;;;;-2.92;59.52;97441.75;4918691;29;20056;-77
2024/01/09 00:31:20;;;;;;;16.63;9.57;;;;;;;-2.93;58.14;97442.66;4918384;29;20428;-76
2024/01/09 00:33:48;;;;;;;15.18;8.90;;;;;;;-2.98;58.03;97442.06;4918337;29;20048;-77
2024/01/09 00:36:16;;;;;;;15.45;8.88;;;;;;;-3.03;57.00;97441.47;4918258;29;20052;-77
2024/01/09 00:38:43;;;;;;;16.73;9.00;;;;;;;-3.12;56.55;97435.09;4918164;29;20103;-76
2024/01/09 00:41:12;;;;;;;15.32;8.45;;;;;;;-3.19;56.32;97443.13;4917772;29;20574;-77
2024/01/09 00:43:40;;;;;;;20.95;10.48;;;;;;;-3.22;56.21;97448.38;4917589;29;20115;-76
2024/01/09 00:46:07;;;;;;;16.35;9.40;;;;;;;-3.25;56.27;97433.25;4916453;29;20060;-76
2024/01/09 00:48:35;;;;;;;13.57;8.93;;;;;;;-3.27;55.97;97446.06;4916084;29;20056;-77
2024/01/09 00:51:03;;;;;;;16.83;9.50;;;;;;;-3.28;55.95;97448.69;4916022;29;20146;-76
2024/01/09 00:53:30;;;;;;;15.50;8.85;;;;;;;-3.31;55.89;97444.56;4915706;29;20071;-76
2024/01/09 00:55:58;;;;;;;14.75;8.20;;;;;;;-3.34;55.44;97452.38;4916103;29;20052;-76
2024/01/09 00:58:27;;;;;;;16.98;9.20;;;;;;;-3.37;55.92;97450.81;4916030;29;20060;-77
2024/01/09 01:00:54;;;;;;;18.52;10.07;;;;;;;-3.33;57.35;97449.72;4915990;29;20080;-76
2024/01/09 01:03:22;;;;;;;16.40;9.13;;;;;;;-3.27;57.36;97452.91;4917378;29;20052;-77
2024/01/09 01:05:49;;;;;;;14.38;9.07;;;;;;;-3.28;56.33;97453.78;4918050;29;20056;-77
2024/01/09 01:08:17;;;;;;;17.35;9.60;;;;;;;-3.32;55.55;97451.41;4917797;29;20067;-77
2024/01/09 01:10:44;;;;;;;16.08;9.73;;;;;;;-3.38;55.63;97451.69;4917607;29;20044;-77
2024/01/09 01:13:12;;;;;;;15.15;9.35;;;;;;;-3.42;55.65;97452.72;4916217;29;20048;-77
2024/01/09 01:15:41;;;;;;;15.90;9.88;;;;;;;-3.44;55.80;97462.19;4917194;29;20056;-76
2024/01/09 01:18:08;;;;;;;15.43;8.43;;;;;;;-3.42;56.06;97468.03;4917414;29;20527;-76
2024/01/09 01:20:36;;;;;;;15.73;8.60;;;;;;;-3.41;55.34;97469.72;4916834;29;20052;-77
2024/01/09 01:23:04;;;;;;;16.10;9.27;;;;;;;-3.43;55.33;97474.06;4916825;29;20493;-76
2024/01/09 01:25:31;;;;;;;17.05;9.02;;;;;;;-3.45;55.16;97468.19;4917581;29;20051;-77
2024/01/09 01:27:59;;;;;;;15.50;9.00;;;;;;;-3.52;54.92;97472.78;4917423;29;20152;-76
2024/01/09 01:30:27;;;;;;;19.80;10.15;;;;;;;-3.60;54.79;97467.19;4921446;29;20048;-76
2024/01/09 01:32:55;;;;;;;16.70;9.27;;;;;;;-3.64;54.89;97464.88;4936368;29;20060;-76
2024/01/09 01:35:25;;;;;;;15.40;8.43;;;;;;;-3.69;54.93;97474.47;4936808;29;20052;-77
2024/01/09 01:37:52;;;;;;;18.13;10.18;;;;;;;-3.72;55.00;97472.88;4919435;29;20052;-76
2024/01/09 01:40:20;;;;;;;15.68;9.30;;;;;;;-3.74;54.97;97465.31;4917669;29;20116;-76
2024/01/09 01:42:47;;;;;;;15.85;10.38;;;;;;;-3.75;55.05;97465.38;4917307;29;20518;-76
2024/01/09 01:45:17;;;;;;;16.63;8.70;;;;;;;-3.78;54.91;97463.81;4917434;29;20139;-77
2024/01/09 01:47:46;;;;;;;14.20;8.38;;;;;;;-3.79;54.90;97463.84;4917395;29;20066;-76
2024/01/09 01:50:16;;;;;;;16.58;9.05;;;;;;;-3.79;54.83;97461.31;4917152;29;20060;-76
2024/01/09 01:52:45;;;;;;;15.60;10.35;;;;;;;-3.82;54.57;97464.03;4931727;28;20044;-75
2024/01/09 01:55:14;;;;;;;17.25;9.77;;;;;;;-3.83;54.93;97463.16;4917750;29;20434;-76
2024/01/09 01:57:43;;;;;;;17.98;10.00;;;;;;;-3.83;54.86;97468.25;4916996;29;20048;-77
2024/01/09 02:00:12;;;;;;;17.65;9.20;;;;;;;-3.83;54.98;97467.44;4917254;29;20048;-76
2024/01/09 02:02:39;;;;;;;18.08;10.48;;;;;;;-3.86;54.74;97458.22;4917998;29;20085;-77
2024/01/09 02:05:08;;;;;;;16.15;9.30;;;;;;;-3.88;54.62;97472.75;4916645;29;20051;-76
2024/01/09 02:07:39;;;;;;;18.70;9.63;;;;;;;-3.86;54.95;97475.25;4916661;29;20056;-76
2024/01/09 02:10:08;;;;;;;17.38;9.13;;;;;;;-3.85;54.97;97470.06;4916422;29;20052;-77
2024/01/09 02:12:35;;;;;;;19.75;9.95;;;;;;;-3.84;54.79;97460.72;4916648;29;20127;-76
2024/01/09 02:15:03;;;;;;;16.25;9.20;;;;;;;-3.85;55.01;97464.97;4916670;29;20531;-76
2024/01/09 02:17:32;;;;;;;16.95;9.65;;;;;;;-3.85;55.13;97457.31;4916643;29;20056;-76
2024/01/09 02:20:00;;;;;;;18.35;9.57;;;;;;;-3.82;54.82;97457.19;4916642;29;20531;-75
2024/01/09 02:22:28;;;;;;;16.60;9.25;;;;;;;-3.86;54.70;97457.41;4916811;29;20138;-76
2024/01/09 02:24:56;;;;;;;15.60;9.07;;;;;;;-3.89;54.83;97448.19;4918320;29;20531;-76
2024/01/09 02:27:31;;;;;;;18.55;9.68;;;;;;;-3.86;55.05;97453.13;4920669;29;20131;-76
2024/01/09 02:30:01;;;;;;;19.17;10.82;;;;;;;-3.87;54.70;97459.13;4920452;29;20501;-76
2024/01/09 02:32:30;;;;;;;18.42;9.43;;;;;;;-3.89;55.38;97466.03;4920127;29;20048;-75
2024/01/09 02:34:58;;;;;;;18.15;9.77;;;;;;;-3.88;55.34;97459.19;4920245;29;20056;-77
2024/01/09 02:37:25;;;;;;;14.63;8.70;;;;;;;-3.89;54.93;97462.63;4920823;29;20062;-76
2024/01/09 02:39:52;;;;;;;15.05;9.27;;;;;;;-3.91;54.83;97464.41;4920295;29;20095;-76
2024/01/09 02:42:20;;;;;;;20.05;10.45;;;;;;;-3.95;54.91;97456.94;4919961;29;20611;-77
2024/01/09 02:44:48;;;;;;;18.77;10.18;;;;;;;-3.94;55.49;97455.19;4920582;29;20067;-76
2024/01/09 02:47:17;;;;;;;16.13;10.25;;;;;;;-3.89;56.11;97455.84;4920165;29;20060;-77
2024/01/09 02:49:44;;;;;;;19.45;10.35;;;;;;;-3.82;56.18;97453.81;4920314;29;20362;-77
2024/01/09 02:52:12;;;;;;;20.42;9.75;;;;;;;-3.83;55.32;97447.88;4919937;29;20047;-76
2024/01/09 02:54:39;;;;;;;16.88;9.68;;;;;;;-3.80;56.58;97452.84;4920062;29;20062;-76
2024/01/09 02:57:07;;;;;;;17.95;9.93;;;;;;;-3.72;56.79;97447.38;4920054;29;20056;-76
2024/01/09 02:59:34;;;;;;;19.67;10.07;;;;;;;-3.65;58.07;97453.00;4920530;29;20051;-76
2024/01/09 03:02:02;;;;;;;20.17;11.15;;;;;;;-3.61;58.28;97449.41;4921113;29;20055;-77
2024/01/09 03:04:31;;;;;;;18.77;10.00;;;;;;;-3.58;57.36;97456.94;4919982;29;20134;-77
2024/01/09 03:06:59;;;;;;;18.50;9.90;;;;;;;-3.58;58.09;97446.72;4920206;29;20052;-76
2024/01/09 03:09:27;;;;;;;14.38;9.18;;;;;;;-3.59;57.20;97445.06;4919618;29;20512;-76
2024/01/09 03:11:54;;;;;;;18.08;9.35;;;;;;;-3.63;57.12;97439.31;4919580;29;20420;-76
2024/01/09 03:14:22;;;;;;;17.92;10.57;;;;;;;-3.65;56.69;97438.56;4919494;29;20055;-76
2024/01/09 03:16:49;;;;;;;18.80;9.77;;;;;;;-3.66;56.64;97448.81;4920222;29;20055;-76
2024/01/09 03:19:17;;;;;;;17.80;10.15;;;;;;;-3.63;56.96;97441.00;4919481;29;20095;-76
2024/01/09 03:21:47;;;;;;;17.25;9.88;;;;;;;-3.67;55.40;97452.25;4919442;29;20044;-76
2024/01/09 03:24:15;;;;;;;16.42;9.93;;;;;;;-3.79;55.34;97434.09;4919640;29;20055;-76
2024/01/09 03:26:42;;;;;;;17.40;9.85;;;;;;;-3.85;55.42;97439.47;4919602;29;20058;-77
2024/01/09 03:29:10;;;;;;;17.98;10.27;;;;;;;-3.90;55.30;97435.50;4919113;29;20048;-77
2024/01/09 03:31:37;;;;;;;17.15;9.68;;;;;;;-3.95;55.07;97431.44;4919223;29;20547;-76
2024/01/09 03:34:05;;;;;;;19.30;10.50;;;;;;;-3.97;55.45;97435.78;4919345;29;20139;-76
2024/01/09 03:36:32;;;;;;;20.80;10.70;;;;;;;-4.00;55.58;97435.94;4918349;29;20056;-77
2024/01/09 03:39:04;;;;;;;18.60;10.27;;;;;;;-3.97;56.63;97437.50;4918955;29;20054;-77
2024/01/09 03:41:32;;;;;;;19.70;11.20;;;;;;;-3.90;56.95;97433.78;4919137;29;20051;-76
2024/01/09 03:43:59;;;;;;;19.38;9.38;;;;;;;-3.86;56.31;97429.38;4918677;29;20519;-75
2024/01/09 03:46:27;;;;;;;18.83;10.13;;;;;;;-3.87;55.66;97428.53;4918727;29;20500;-76
2024/01/09 03:48:54;;;;;;;18.77;10.05;;;;;;;-3.87;55.47;97426.00;4918968;29;20501;-76
2024/01/09 03:51:22;;;;;;;16.05;9.70;;;;;;;-3.85;56.71;97424.16;4918940;29;20050;-76
2024/01/09 03:53:49;;;;;;;19.73;10.27;;;;;;;-3.81;56.29;97422.31;4918599;29;20142;-75
2024/01/09 03:56:18;;;;;;;16.92;10.07;;;;;;;-3.77;57.64;97427.19;4918848;29;20084;-77
2024/01/09 03:58:46;;;;;;;16.48;9.82;;;;;;;-3.69;57.58;97423.47;4919558;29;20107;-76
2024/01/09 04:01:13;;;;;;;17.52;9.52;;;;;;;-3.67;57.52;97431.84;4918739;29;20056;-76
2024/01/09 04:03:41;;;;;;;19.50;10.15;;;;;;;-3.67;56.58;97427.59;4918824;29;20087;-77
2024/01/09 04:06:09;;;;;;;16.92;9.43;;;;;;;-3.70;57.57;97421.81;4919112;29;20048;-76
2024/01/09 04:08:36;;;;;;;20.33;9.68;;;;;;;-3.71;57.52;97423.53;4918818;29;20112;-76
2024/01/09 04:11:04;;;;;;;16.95;9.30;;;;;;;-3.75;56.32;97430.50;4918910;29;20484;-76
2024/01/09 04:13:33;;;;;;;18.55;10.27;;;;;;;-3.85;55.47;97429.28;4918354;29;20138;-76
2024/01/09 04:16:00;;;;;;;17.70;8.95;;;;;;;-3.89;55.55;97427.78;4918914;29;20054;-76
2024/01/09 04:18:28;;;;;;;16.50;8.77;;;;;;;-3.91;55.57;97437.22;4918730;29;20079;-77
2024/01/09 04:20:56;;;;;;;18.65;9.90;;;;;;;-3.91;55.51;97434.69;4918748;29;20063;-76
2024/01/09 04:23:23;;;;;;;18.13;10.02;;;;;;;-3.93;55.46;97436.47;4918269;29;20143;-76
2024/01/09 04:25:51;;;;;;;16.08;9.07;;;;;;;-3.95;55.16;97444.19;4919102;29;20075;-77
2024/01/09 04:28:19;;;;;;;17.45;9.23;;;;;;;-3.97;55.33;97445.16;4918113;29;20048;-77
2024/01/09 04:30:47;;;;;;;19.55;10.00;;;;;;;-3.99;54.83;97441.84;4918353;29;20058;-77
2024/01/09 04:33:15;;;;;;;18.65;9.38;;;;;;;-4.02;54.97;97444.56;4918031;29;20044;-76
2024/01/09 04:35:42;;;;;;;16.27;9.02;;;;;;;-4.01;55.15;97453.84;4918277;29;20512;-77
2024/01/09 04:38:10;;;;;;;22.67;10.13;;;;;;;-4.00;54.86;97442.72;4918373;29;20139;-77
2024/01/09 04:40:37;;;;;;;20.20;10.48;;;;;;;-3.99;55.24;97457.13;4918377;29;20297;-77
2024/01/09 04:43:05;;;;;;;16.63;9.40;;;;;;;-3.97;54.59;97450.25;4917903;29;20048;-77
2024/01/09 04:45:32;;;;;;;17.08;9.15;;;;;;;-4.00;54.49;97455.47;4918029;29;20052;-77
2024/01/09 04:48:01;;;;;;;17.65;8.43;;;;;;;-4.01;54.17;97453.84;4917820;29;20094;-76
2024/01/09 04:50:29;;;;;;;17.20;8.82;;;;;;;-4.00;54.39;97458.03;4917915;29;20056;-76
2024/01/09 04:52:57;;;;;;;16.70;8.38;;;;;;;-4.01;54.12;97458.94;4918093;29;20055;-76
2024/01/09 04:55:25;;;;;;;16.48;9.50;;;;;;;-4.02;53.88;97452.19;4917782;29;20523;-77
2024/01/09 04:57:52;;;;;;;17.95;9.73;;;;;;;-4.07;53.94;97447.28;4917740;29;20139;-76
2024/01/09 05:00:20;;;;;;;19.33;10.02;;;;;;;-4.10;53.92;97455.09;4931348;29;20505;-76
2024/01/09 05:02:48;;;;;;;16.35;8.80;;;;;;;-4.12;54.20;97454.31;4930652;29;20076;-76
2024/01/09 05:05:17;;;;;;;17.58;9.30;;;;;;;-4.12;54.84;97446.69;4923197;29;20083;-76
2024/01/09 05:07:46;;;;;;;17.38;9.23;;;;;;;-4.09;54.22;97448.25;4918956;29;20075;-76
2024/01/09 05:10:13;;;;;;;15.65;8.38;;;;;;;-4.09;54.05;97455.91;4920431;29;20496;-76
2024/01/09 05:12:41;;;;;;;19.48;10.48;;;;;;;-4.11;53.75;97450.91;4918021;29;20086;-76
2024/01/09 05:15:09;;;;;;;18.65;9.45;;;;;;;-4.16;54.03;97451.06;4917590;29;20146;-76
2024/01/09 05:17:38;;;;;;;17.50;10.27;;;;;;;-4.17;53.93;97457.09;4917402;29;20052;-76
2024/01/09 05:20:06;;;;;;;14.95;8.60;;;;;;;-4.18;53.88;97455.41;4917877;29;20150;-76
2024/01/09 05:22:35;;;;;;;21.48;9.15;;;;;;;-4.19;54.07;97455.50;4917244;29;20121;-76
2024/01/09 05:25:04;;;;;;;17.10;8.95;;;;;;;-4.22;53.79;97455.63;4917519;29;20051;-76
2024/01/09 05:27:31;;;;;;;17.58;9.48;;;;;;;-4.22;55.01;97455.63;4917706;29;20143;-76
2024/01/09 05:29:59;;;;;;;19.48;10.18;;;;;;;-4.13;56.68;97460.31;4917604;29;20432;-76
2024/01/09 05:32:27;;;;;;;21.95;10.25;;;;;;;-4.07;56.08;97457.47;4917193;29;20048;-75
2024/01/09 05:34:54;;;;;;;17.02;9.02;;;;;;;-4.03;55.01;97450.53;4917375;29;20083;-76
2024/01/09 05:37:22;;;;;;;17.80;9.25;;;;;;;-4.02;54.60;97457.28;4916839;29;20453;-76
2024/01/09 05:39:51;;;;;;;15.55;9.00;;;;;;;-4.02;54.56;97457.28;4918713;29;20143;-77
2024/01/09 05:42:18;;;;;;;17.80;9.68;;;;;;;-4.02;55.25;97453.00;4915230;29;20056;-76
2024/01/09 05:44:46;;;;;;;22.42;10.48;;;;;;;-3.97;56.64;97442.59;4916701;29;20055;-77
2024/01/09 05:47:13;;;;;;;17.05;9.60;;;;;;;-3.94;55.81;97460.28;4918283;29;20127;-75
2024/01/09 05:49:41;;;;;;;18.50;9.45;;;;;;;-3.98;54.84;97448.59;4915464;29;20535;-77
2024/01/09 05:52:09;;;;;;;18.58;9.00;;;;;;;-4.02;54.67;97457.28;4917092;29;20052;-76
2024/01/09 05:54:36;;;;;;;15.95;8.90;;;;;;;-4.06;54.37;97445.59;4916829;29;20143;-76
2024/01/09 05:57:06;;;;;;;20.85;10.60;;;;;;;-4.12;54.17;97456.06;4916298;29;20044;-75
2024/01/09 05:59:33;;;;;;;21.40;10.13;;;;;;;-4.12;55.18;97454.31;4916244;29;20083;-76
2024/01/09 06:02:04;;;;;;;16.02;9.80;;;;;;;-4.05;55.31;97453.13;4916262;29;20067;-77
2024/01/09 06:04:32;;;;;;;16.75;9.60;;;;;;;-4.04;54.78;97454.00;4916135;29;20544;-76
2024/01/09 06:06:59;;;;;;;19.10;9.80;;;;;;;-4.08;54.52;97455.03;4916691;29;20451;-76
2024/01/09 06:09:27;;;;;;;16.85;9.52;;;;;;;-4.11;54.86;97455.16;4916113;29;20086;-75
2024/01/09 06:11:54;;;;;;;21.58;10.20;;;;;;;-4.09;55.87;97464.38;4918259;29;20048;-76
2024/01/09 06:14:24;;;;;;;17.33;9.75;;;;;;;-4.03;57.49;97463.28;4909304;29;20060;-76
2024/01/09 06:16:51;;;;;;;20.58;9.85;;;;;;;-3.98;57.57;97458.78;4914461;29;20052;-76
2024/01/09 06:19:19;;;;;;;18.95;11.05;;;;;;;-3.89;59.44;97458.38;4915471;29;20587;-76
2024/01/09 06:21:46;;;;;;;16.40;10.85;;;;;;;-3.83;59.18;97462.34;4914168;29;20056;-76
2024/01/09 06:24:14;;;;;;;22.05;10.98;;;;;;;-3.80;57.45;97459.69;4913790;29;20045;-76
2024/01/09 06:26:41;;;;;;;21.38;10.02;;;;;;;-3.90;55.60;97453.34;4914383;29;20063;-75
2024/01/09 06:29:09;;;;;;;18.88;9.77;;;;;;;-3.97;55.42;97458.72;4914379;29;20073;-76
2024/01/09 06:31:40;;;;;;;21.23;10.85;;;;;;;-3.98;56.44;97458.78;4914356;29;20056;-75
2024/01/09 06:34:08;;;;;;;19.30;10.13;;;;;;;-3.92;57.99;97461.06;4914240;29;20527;-76
2024/01/09 06:36:36;;;;;;;18.20;10.30;;;;;;;-3.85;58.57;97459.03;4916029;29;20052;-76
2024/01/09 06:39:03;;;;;;;17.23;10.23;;;;;;;-3.84;59.19;97466.63;4916355;29;20143;-76
2024/01/09 06:41:31;;;;;;;19.65;10.00;;;;;;;-3.83;58.74;97462.34;4916130;29;20482;-77
2024/01/09 06:43:58;;;;;;;23.02;10.15;;;;;;;-3.83;58.47;97462.34;4916006;29;20044;-76
2024/01/09 06:46:26;;;;;;;20.02;10.30;;;;;;;-3.83;57.17;97465.72;4916238;29;20063;-76
2024/01/09 06:48:55;;;;;;;17.67;9.80;;;;;;;-3.87;55.76;97476.13;4916118;29;20116;-76
2024/01/09 06:51:25;;;;;;;18.77;10.45;;;;;;;-3.92;55.20;97475.53;4916543;29;20079;-76
2024/01/09 06:53:53;;;;;;;17.38;9.23;;;;;;;-3.98;55.91;97474.06;4916039;29;20052;-76
2024/01/09 06:56:21;;;;;;;20.42;8.82;;;;;;;-4.03;55.68;97474.28;4915787;29;20056;-76
2024/01/09 06:58:48;;;;;;;19.75;10.50;;;;;;;-4.03;57.16;97481.09;4916021;29;20056;-77
2024/01/09 07:01:20;;;;;;;17.92;9.55;;;;;;;-3.95;57.17;97479.03;4916170;29;20433;-76
2024/01/09 07:03:48;;;;;;;23.38;11.43;;;;;;;-3.94;57.74;97476.44;4915778;29;20052;-76
2024/01/09 07:06:17;;;;;;;19.48;8.88;;;;;;;-3.90;57.28;97482.19;4916352;29;20084;-76
2024/01/09 07:08:45;;;;;;;18.63;10.63;;;;;;;-3.94;56.15;97475.59;4916142;29;20075;-76
2024/01/09 07:11:12;;;;;;;20.35;11.75;;;;;;;-4.00;56.12;97486.06;4917801;29;20052;-76
2024/01/09 07:13:40;;;;;;;21.85;11.70;;;;;;;-4.02;57.99;97486.16;4918813;29;20571;-76
2024/01/09 07:16:08;;;;;;;18.70;10.30;;;;;;;-4.00;57.66;97479.25;4919094;29;20076;-76
2024/01/09 07:18:35;;;;;;;22.08;10.25;;;;;;;-3.98;56.70;97479.16;4919479;29;20059;-76
2024/01/09 07:21:03;;;;;;;19.45;10.05;;;;;;;-4.01;55.84;97489.50;4924932;29;20087;-76
2024/01/09 07:23:32;;;;;;;18.60;10.07;;;;;;;-4.11;55.68;97484.03;4918989;29;20138;-76
2024/01/09 07:26:00;;;;;;;17.63;9.93;;;;;;;-4.18;55.74;97490.25;4919532;29;20072;-76
2024/01/09 07:28:28;;;;;;;18.52;9.05;;;;;;;-4.21;55.19;97493.78;4919285;29;20062;-76
2024/01/09 07:30:59;;;;;;;19.35;10.25;;;;;;;-4.26;55.29;97490.63;4918973;29;20052;-77
2024/01/09 07:33:26;;;;;;;19.00;10.18;;;;;;;-4.27;55.28;97504.25;4919112;29;20051;-76
2024/01/09 07:35:54;;;;;;;20.65;9.98;;;;;;;-4.29;54.50;97502.66;4919375;29;20088;-75
2024/01/09 07:38:24;;;;;;;22.50;11.32;;;;;;;-4.31;55.22;97496.81;4919162;29;20443;-76
2024/01/09 07:40:53;;;;;;;20.52;10.50;;;;;;;-4.29;55.78;97500.09;4919021;29;20528;-75
2024/01/09 07:43:25;;;;;;;27.05;10.63;;;;;;;-4.30;55.05;97501.84;4918556;29;20051;-76
2024/01/09 07:45:54;;;;;;;18.70;10.43;;;;;;;-4.28;55.11;97505.16;4918929;29;20052;-76
2024/01/09 07:48:21;;;;;;;20.85;10.82;;;;;;;-4.29;54.50;97506.03;4918869;29;20052;-77
2024/01/09 07:50:50;;;;;;;19.70;9.93;;;;;;;-4.32;54.13;97506.16;4918679;29;20088;-76
2024/01/09 07:53:18;;;;;;;19.55;10.95;;;;;;;-4.33;54.25;97504.50;4918302;29;20060;-77
2024/01/09 07:55:45;;;;;;;21.10;11.07;;;;;;;-4.35;54.05;97506.31;4918447;29;20048;-76
2024/01/09 07:58:14;;;;;;;21.90;12.07;;;;;;;-4.34;55.55;97515.59;4918731;29;20052;-76
2024/01/09 08:00:42;;;;;;;18.48;10.20;;;;;;;-4.31;55.37;97510.34;4918553;29;20508;-76
2024/01/09 08:03:09;;;;;;;19.85;10.32;;;;;;;-4.28;54.90;97514.53;4918171;29;20052;-76
2024/01/09 08:05:38;;;;;;;18.73;10.88;;;;;;;-4.33;55.63;97512.16;4918316;29;20055;-76
2024/01/09 08:08:06;;;;;;;19.25;9.70;;;;;;;-4.32;55.42;97516.34;4918209;29;20055;-76
2024/01/09 08:10:34;;;;;;;21.55;10.48;;;;;;;-4.31;54.92;97514.63;4918277;29;20662;-76
2024/01/09 08:13:01;;;;;;;18.85;10.88;;;;;;;-4.34;54.03;97515.59;4918664;29;20056;-76
2024/01/09 08:15:30;;;;;;;21.15;10.27;;;;;;;-4.38;54.21;97521.72;4918379;29;20508;-76
2024/01/09 08:17:58;;;;;;;23.67;10.18;;;;;;;-4.37;54.72;97514.03;4918311;29;20472;-76
2024/01/09 08:20:26;;;;;;;19.92;10.65;;;;;;;-4.34;54.29;97515.59;4918121;29;20108;-76
2024/01/09 08:22:54;;;;;;;19.80;10.32;;;;;;;-4.34;54.15;97518.16;4917085;29;20139;-76
2024/01/09 08:25:21;;;;;;;20.13;10.75;;;;;;;-4.33;54.49;97519.78;4918029;29;20095;-76
2024/01/09 08:27:49;;;;;;;22.63;11.13;;;;;;;-4.29;55.43;97521.31;4917974;29;20052;-76
2024/01/09 08:30:16;;;;;;;21.42;10.93;;;;;;;-4.18;56.39;97518.28;4927049;29;20077;-76
2024/01/09 08:32:45;;;;;;;22.17;11.27;;;;;;;-4.11;55.51;97517.16;4931763;29;20056;-76
2024/01/09 08:35:13;;;;;;;21.15;10.45;;;;;;;-4.10;54.69;97512.88;4927790;29;20080;-76
2024/01/09 08:37:41;;;;;;;25.23;11.38;;;;;;;-4.09;55.01;97517.88;4919491;29;20056;-77
2024/01/09 08:40:10;;;;;;;22.70;10.95;;;;;;;-4.11;54.10;97517.16;4918527;29;20563;-76
2024/01/09 08:42:37;;;;;;;18.30;10.10;;;;;;;-4.17;53.70;97513.13;4918311;29;20091;-76
2024/01/09 08:45:06;;;;;;;18.80;10.40;;;;;;;-4.20;53.87;97518.38;4917884;29;20094;-76
2024/01/09 08:47:34;;;;;;;17.65;10.27;;;;;;;-4.18;53.94;97518.28;4918248;29;20100;-76
2024/01/09 08:50:03;;;;;;;20.95;10.52;;;;;;;-4.19;53.26;97506.47;4918254;29;20076;-76
2024/01/09 08:52:31;;;;;;;20.00;10.38;;;;;;;-4.25;53.09;97525.38;4917447;29;20155;-76
2024/01/09 08:54:58;;;;;;;19.83;10.38;;;;;;;-4.32;53.06;97515.53;4917953;29;20419;-77
2024/01/09 08:57:26;;;;;;;19.88;9.90;;;;;;;-4.36;53.34;97517.38;4917566;29;20134;-76
2024/01/09 08:59:54;;;;;;;22.33;11.57;;;;;;;-4.31;54.24;97517.19;4917694;29;20516;-76
2024/01/09 09:02:25;;;;;;;17.45;9.85;;;;;;;-4.24;54.06;97511.75;4917265;29;20067;-75
2024/01/09 09:04:52;;;;;;;24.67;10.88;;;;;;;-4.20;53.36;97514.97;4917701;29;20115;-76
2024/01/09 09:07:21;;;;;;;21.83;10.80;;;;;;;-4.27;52.84;97522.06;4917717;29;20080;-76
2024/01/09 09:09:49;;;;;;;21.73;11.98;;;;;;;-4.34;52.72;97518.16;4917321;29;20058;-76
2024/01/09 09:12:16;;;;;;;22.95;12.18;;;;;;;-4.40;53.17;97523.50;4916784;29;20575;-76
2024/01/09 09:14:44;;;;;;;21.17;11.45;;;;;;;-4.40;53.30;97529.41;4916899;29;20115;-76
2024/01/09 09:17:14;;;;;;;19.33;9.90;;;;;;;-4.38;53.31;97527.63;4917121;29;20592;-76
2024/01/09 09:19:41;;;;;;;21.08;9.70;;;;;;;-4.34;53.32;97523.25;4917324;29;20080;-75
2024/01/09 09:22:10;;;;;;;19.20;9.88;;;;;;;-4.31;53.15;97529.91;4916810;29;20062;-76
2024/01/09 09:24:39;;;;;;;22.17;10.80;;;;;;;-4.30;52.54;97516.31;4917097;29;20095;-76
2024/01/09 09:27:07;;;;;;;20.80;9.75;;;;;;;-4.33;52.91;97522.34;4917048;29;20056;-76
2024/01/09 09:29:34;;;;;;;22.67;10.52;;;;;;;-4.34;52.62;97523.25;4922316;29;20048;-76
2024/01/09 09:32:06;;;;;;;21.38;10.48;;;;;;;-4.34;52.51;97525.78;4917251;29;20131;-76
2024/01/09 09:34:33;;;;;;;19.70;10.55;;;;;;;-4.35;52.47;97535.16;4916351;29;20564;-77
2024/01/09 09:37:01;;;;;;;21.17;10.02;;;;;;;-4.36;52.56;97523.31;4916919;29;20054;-76
2024/01/09 09:39:28;;;;;;;23.17;13.30;;;;;;;-4.32;52.43;97524.00;4916945;29;20135;-76
2024/01/09 09:41:57;;;;;;;17.80;10.53;;;;;;;-4.27;52.36;97524.63;4916526;29;20139;-76
2024/01/09 09:44:26;;;;;;;18.48;9.30;;;;;;;-4.21;52.38;97528.63;4916797;29;20490;-76
2024/01/09 09:46:55;;;;;;;19.38;10.30;;;;;;;-4.15;52.52;97524.09;4916864;29;20181;-76
2024/01/09 09:49:23;;;;;;;21.05;10.52;;;;;;;-4.04;52.89;97515.97;4916582;29;20091;-76
2024/01/09 09:51:52;;;;;;;19.63;10.55;;;;;;;-3.93;52.46;97533.34;4916391;29;20082;-76
2024/01/09 09:54:22;;;;;;;18.67;10.73;;;;;;;-3.83;52.24;97519.25;4916322;29;20052;-76
2024/01/09 09:56:51;;;;;;;22.42;10.35;;;;;;;-3.77;52.12;97507.97;4916386;29;20083;-76
2024/01/09 09:59:20;;;;;;;16.27;9.10;;;;;;;-3.70;51.66;97506.78;4916387;29;20056;-76
2024/01/09 10:01:48;;;;;;;16.88;10.18;;;;;;;-3.61;51.76;97502.97;4916373;29;20051;-76
2024/01/09 10:04:29;;;;;;;18.67;8.88;;;;;;;-3.50;50.21;97505.00;4915896;29;20131;-76
2024/01/09 10:06:58;;;;;;;16.60;8.80;;;;;;;-3.40;51.15;97507.06;4916165;29;20480;-76
2024/01/09 10:09:31;;;;;;;21.15;10.43;;;;;;;-3.33;51.01;97508.41;4916507;29;20052;-76
2024/01/09 10:11:59;;;;;;;19.17;9.88;;;;;;;-3.26;51.00;97508.13;4917235;29;20088;-76
2024/01/09 10:14:28;;;;;;;17.38;9.45;;;;;;;-3.20;50.71;97505.28;4916020;29;20500;-76
2024/01/09 10:16:56;;;;;;;19.88;9.80;;;;;;;-3.15;50.51;97503.31;4916382;29;20055;-76
2024/01/09 10:19:24;;;;;;;19.27;10.27;;;;;;;-3.09;50.89;97500.47;4916024;29;20078;-75
2024/01/09 10:21:51;;;;;;;19.15;9.90;;;;;;;-2.99;50.30;97496.59;4915842;29;20112;-75
2024/01/09 10:24:20;;;;;;;20.77;9.05;;;;;;;-2.95;50.01;97503.19;4916036;29;20056;-76
2024/01/09 10:26:51;;;;;;;22.08;9.85;;;;;;;-2.87;49.96;97501.97;4915952;29;20112;-76
2024/01/09 10:29:18;;;;;;;18.10;10.15;;;;;;;-2.75;50.78;97497.09;4916190;29;20133;-76
2024/01/09 10:31:47;;;;;;;20.50;9.68;;;;;;;-2.61;49.96;97487.91;4915834;29;20048;-76
2024/01/09 10:34:15;;;;;;;17.42;9.98;;;;;;;-2.55;49.48;97500.38;4915616;29;20091;-76
2024/01/09 10:36:43;;;;;;;20.33;9.90;;;;;;;-2.53;49.50;97501.13;4915654;29;20055;-76
2024/01/09 10:39:12;;;;;;;18.77;9.43;;;;;;;-2.53;49.24;97486.59;4915785;29;20052;-76
2024/01/09 10:41:40;;;;;;;18.77;9.48;;;;;;;-2.49;49.34;97489.84;4915668;29;20048;-76
2024/01/09 10:44:07;;;;;;;15.68;9.25;;;;;;;-2.44;49.20;97487.88;4915527;29;20055;-76
2024/01/09 10:46:37;;;;;;;17.83;9.45;;;;;;;-2.33;49.39;97482.19;4918437;29;20052;-76
2024/01/09 10:49:07;;;;;;;17.23;8.77;;;;;;;-2.25;48.41;97472.41;4919483;29;20059;-76
2024/01/09 10:51:36;;;;;;;17.95;7.95;;;;;;;-2.13;48.70;97481.16;4919416;29;20480;-76
2024/01/09 10:54:07;;;;;;;18.05;9.68;;;;;;;-2.04;48.34;97470.44;4918922;29;20052;-76
2024/01/09 10:56:35;;;;;;;17.85;8.57;;;;;;;-1.93;48.87;97465.56;4919301;29;20059;-76
2024/01/09 10:59:04;;;;;;;17.25;8.48;;;;;;;-1.80;48.07;97464.91;4919200;29;20056;-76
2024/01/09 11:01:32;;;;;;;14.45;8.45;;;;;;;-1.75;47.90;97458.63;4919232;29;20058;-75
2024/01/09 11:03:59;;;;;;;14.98;8.40;;;;;;;-1.66;48.25;97457.31;4919105;29;20059;-76
2024/01/09 11:06:32;;;;;;;15.48;8.15;;;;;;;-1.56;47.38;97463.53;4918974;29;20063;-76
2024/01/09 11:09:01;;;;;;;;;;;;;;;-1.41;46.53;97459.31;4919922;29;20079;-76
2024/01/09 11:11:30;;;;;;;18.33;8.93;;;;;;;-1.26;48.48;97458.44;4919005;29;19923;-76
2024/01/09 11:14:00;;;;;;;14.45;7.22;;;;;;;-1.08;47.70;97465.97;4918732;29;20120;-76
2024/01/09 11:16:31;;;;;;;17.67;8.52;;;;;;;-0.93;46.74;97457.41;4919202;29;20062;-76
2024/01/09 11:19:01;;;;;;;14.05;7.93;;;;;;;-0.75;46.80;97467.50;4919362;29;20076;-77
2024/01/09 11:21:31;;;;;;;17.63;9.48;;;;;;;-0.56;45.99;97462.94;4918823;29;20147;-76
2024/01/09 11:24:00;;;;;;;14.10;8.68;;;;;;;-0.37;45.81;97451.56;4918589;29;20139;-76
2024/01/09 11:26:30;;;;;;;15.65;8.35;;;;;;;-0.23;45.30;97454.13;4918984;29;20427;-76